sensor_id;sensor_type;location;lat;lon;timestamp;pressure;altitude;pressure_sealevel;temperature
75431;BMP280;64127;51.488;5.462;2022-11-15T00:02:23;100628.38;;;11.03
75431;BMP280;64127;51.488;5.462;2022-11-15T00:04:55;100625.94;;;11.08
75431;BMP280;64127;51.488;5.462;2022-11-15T00:07:27;100625.09;;;11.09
75431;BMP280;64127;51.488;5.462;2022-11-15T00:10:19;100594.88;;;10.95
75431;BMP280;64127;51.488;5.462;2022-11-15T00:12:51;100622.63;;;11.13
75431;BMP280;64127;51.488;5.462;2022-11-15T00:15:23;100625.41;;;11.18
75431;BMP280;64127;51.488;5.462;2022-11-15T00:17:55;100619.28;;;11.17
75431;BMP280;64127;51.488;5.462;2022-11-15T00:20:27;100625.63;;;11.24
75431;BMP280;64127;51.488;5.462;2022-11-15T00:22:59;100605.44;;;11.22
75431;BMP280;64127;51.488;5.462;2022-11-15T00:25:32;100624.97;;;11.30
75431;BMP280;64127;51.488;5.462;2022-11-15T00:28:04;100603.63;;;11.20
75431;BMP280;64127;51.488;5.462;2022-11-15T00:30:36;100618.13;;;11.35
75431;BMP280;64127;51.488;5.462;2022-11-15T00:33:09;100618.19;;;11.36
75431;BMP280;64127;51.488;5.462;2022-11-15T00:35:41;100623.47;;;11.38
75431;BMP280;64127;51.488;5.462;2022-11-15T00:38:13;100619.22;;;11.41
75431;BMP280;64127;51.488;5.462;2022-11-15T00:40:45;100617.56;;;11.43
75431;BMP280;64127;51.488;5.462;2022-11-15T00:43:17;100616.69;;;11.44
75431;BMP280;64127;51.488;5.462;2022-11-15T00:45:49;100613.34;;;11.48
75431;BMP280;64127;51.488;5.462;2022-11-15T00:48:21;100600.91;;;11.43
75431;BMP280;64127;51.488;5.462;2022-11-15T00:50:53;100596.66;;;11.46
75431;BMP280;64127;51.488;5.462;2022-11-15T00:53:25;100598.47;;;11.49
75431;BMP280;64127;51.488;5.462;2022-11-15T00:55:58;100600.63;;;11.60
75431;BMP280;64127;51.488;5.462;2022-11-15T00:58:30;100605.78;;;11.57
75431;BMP280;64127;51.488;5.462;2022-11-15T01:01:09;100605.88;;;11.60
75431;BMP280;64127;51.488;5.462;2022-11-15T01:03:42;100608.53;;;11.62
75431;BMP280;64127;51.488;5.462;2022-11-15T01:06:14;100597.25;;;11.64
75431;BMP280;64127;51.488;5.462;2022-11-15T01:08:46;100581.31;;;11.58
75431;BMP280;64127;51.488;5.462;2022-11-15T01:11:18;100604.50;;;11.72
75431;BMP280;64127;51.488;5.462;2022-11-15T01:13:50;100600.16;;;11.72
75431;BMP280;64127;51.488;5.462;2022-11-15T01:16:22;100605.50;;;11.75
75431;BMP280;64127;51.488;5.462;2022-11-15T01:18:54;100592.44;;;11.77
75431;BMP280;64127;51.488;5.462;2022-11-15T01:21:25;100595.09;;;11.78
75431;BMP280;64127;51.488;5.462;2022-11-15T01:23:57;100592.53;;;11.80
75431;BMP280;64127;51.488;5.462;2022-11-15T01:26:29;100591.72;;;11.82
75431;BMP280;64127;51.488;5.462;2022-11-15T01:29:01;100581.31;;;11.85
75431;BMP280;64127;51.488;5.462;2022-11-15T01:31:33;100575.06;;;11.82
75431;BMP280;64127;51.488;5.462;2022-11-15T01:34:05;100576.06;;;11.85
75431;BMP280;64127;51.488;5.462;2022-11-15T01:36:37;100580.53;;;11.88
75431;BMP280;64127;51.488;5.462;2022-11-15T01:39:09;100561.94;;;11.82
75431;BMP280;64127;51.488;5.462;2022-11-15T01:41:41;100578.84;;;11.90
75431;BMP280;64127;51.488;5.462;2022-11-15T01:47:20;100576.22;;;11.90
75431;BMP280;64127;51.488;5.462;2022-11-15T01:49:57;100578.94;;;11.93
75431;BMP280;64127;51.488;5.462;2022-11-15T01:52:33;100580.81;;;11.97
75431;BMP280;64127;51.488;5.462;2022-11-15T01:55:11;100576.50;;;11.99
75431;BMP280;64127;51.488;5.462;2022-11-15T01:57:46;100580.09;;;12.02
75431;BMP280;64127;51.488;5.462;2022-11-15T02:00:19;100572.28;;;12.04
75431;BMP280;64127;51.488;5.462;2022-11-15T02:02:51;100568.00;;;12.07
75431;BMP280;64127;51.488;5.462;2022-11-15T02:05:23;100555.69;;;12.05
75431;BMP280;64127;51.488;5.462;2022-11-15T02:07:55;100557.53;;;12.09
75431;BMP280;64127;51.488;5.462;2022-11-15T02:10:28;100565.72;;;12.18
75431;BMP280;64127;51.488;5.462;2022-11-15T02:13:01;100565.75;;;12.19
75431;BMP280;64127;51.488;5.462;2022-11-15T02:16:04;100561.47;;;12.23
75431;BMP280;64127;51.488;5.462;2022-11-15T02:18:56;100557.09;;;12.24
75431;BMP280;64127;51.488;5.462;2022-11-15T02:37:14;100540.06;;;12.39
75431;BMP280;64127;51.488;5.462;2022-11-15T02:42:53;100543.88;;;12.50
75431;BMP280;64127;51.488;5.462;2022-11-15T02:45:52;100540.41;;;12.51
75431;BMP280;64127;51.488;5.462;2022-11-15T02:48:26;100531.66;;;12.52
75431;BMP280;64127;51.488;5.462;2022-11-15T02:50:59;100540.63;;;12.60
75431;BMP280;64127;51.488;5.462;2022-11-15T02:53:32;100536.34;;;12.62
75431;BMP280;64127;51.488;5.462;2022-11-15T02:56:04;100539.88;;;12.64
75431;BMP280;64127;51.488;5.462;2022-11-15T03:04:43;100525.97;;;12.68
75431;BMP280;64127;51.488;5.462;2022-11-15T03:07:48;100518.91;;;12.66
75431;BMP280;64127;51.488;5.462;2022-11-15T03:13:56;100518.09;;;12.68
75431;BMP280;64127;51.488;5.462;2022-11-15T03:17:05;100499.44;;;12.59
75431;BMP280;64127;51.488;5.462;2022-11-15T03:19:45;100511.03;;;12.67
75431;BMP280;64127;51.488;5.462;2022-11-15T03:22:23;100523.56;;;12.78
75431;BMP280;64127;51.488;5.462;2022-11-15T03:25:04;100522.75;;;12.79
75431;BMP280;64127;51.488;5.462;2022-11-15T03:27:41;100520.19;;;12.82
75431;BMP280;64127;51.488;5.462;2022-11-15T03:30:15;100521.16;;;12.85
75431;BMP280;64127;51.488;5.462;2022-11-15T03:32:56;100523.91;;;12.90
75431;BMP280;64127;51.488;5.462;2022-11-15T03:35:40;100524.75;;;12.89
75431;BMP280;64127;51.488;5.462;2022-11-15T03:38:26;100522.97;;;12.88
75431;BMP280;64127;51.488;5.462;2022-11-15T03:41:05;100518.53;;;12.85
75431;BMP280;64127;51.488;5.462;2022-11-15T03:46:58;100531.88;;;12.93
75431;BMP280;64127;51.488;5.462;2022-11-15T03:49:36;100532.91;;;12.98
75431;BMP280;64127;51.488;5.462;2022-11-15T03:52:10;100532.09;;;13.00
75431;BMP280;64127;51.488;5.462;2022-11-15T03:54:56;100532.94;;;12.99
75431;BMP280;64127;51.488;5.462;2022-11-15T03:57:29;100523.31;;;13.00
75431;BMP280;64127;51.488;5.462;2022-11-15T04:00:01;100530.44;;;13.04
75431;BMP280;64127;51.488;5.462;2022-11-15T04:02:32;100526.00;;;13.03
75431;BMP280;64127;51.488;5.462;2022-11-15T04:05:05;100518.97;;;13.02
75431;BMP280;64127;51.488;5.462;2022-11-15T04:07:37;100515.56;;;13.06
75431;BMP280;64127;51.488;5.462;2022-11-15T04:10:11;100515.69;;;13.09
75431;BMP280;64127;51.488;5.462;2022-11-15T04:12:45;100514.75;;;13.08
75431;BMP280;64127;51.488;5.462;2022-11-15T04:15:22;100517.47;;;13.10
75431;BMP280;64127;51.488;5.462;2022-11-15T04:17:56;100511.34;;;13.11
75431;BMP280;64127;51.488;5.462;2022-11-15T04:20:30;100516.63;;;13.12
75431;BMP280;64127;51.488;5.462;2022-11-15T04:23:23;100498.09;;;13.08
75431;BMP280;64127;51.488;5.462;2022-11-15T04:26:20;100526.38;;;13.15
75431;BMP280;64127;51.488;5.462;2022-11-15T04:28:53;100496.22;;;13.04
75431;BMP280;64127;51.488;5.462;2022-11-15T04:31:43;100511.38;;;13.12
75431;BMP280;64127;51.488;5.462;2022-11-15T04:34:15;100520.31;;;13.19
75431;BMP280;64127;51.488;5.462;2022-11-15T04:36:47;100512.47;;;13.20
75431;BMP280;64127;51.488;5.462;2022-11-15T04:39:41;100510.47;;;13.12
75431;BMP280;64127;51.488;5.462;2022-11-15T04:42:13;100519.31;;;13.14
75431;BMP280;64127;51.488;5.462;2022-11-15T04:44:45;100522.03;;;13.18
75431;BMP280;64127;51.488;5.462;2022-11-15T04:47:17;100518.50;;;13.16
75431;BMP280;64127;51.488;5.462;2022-11-15T04:49:49;100525.66;;;13.22
75431;BMP280;64127;51.488;5.462;2022-11-15T04:52:21;100523.00;;;13.22
75431;BMP280;64127;51.488;5.462;2022-11-15T04:54:53;100516.00;;;13.21
75431;BMP280;64127;51.488;5.462;2022-11-15T04:57:24;100512.47;;;13.20
75431;BMP280;64127;51.488;5.462;2022-11-15T04:59:56;100523.91;;;13.23
75431;BMP280;64127;51.488;5.462;2022-11-15T05:02:28;100510.59;;;13.15
75431;BMP280;64127;51.488;5.462;2022-11-15T05:05:20;100510.72;;;13.21
75431;BMP280;64127;51.488;5.462;2022-11-15T05:07:52;100512.53;;;13.24
75431;BMP280;64127;51.488;5.462;2022-11-15T05:10:24;100517.84;;;13.25
75431;BMP280;64127;51.488;5.462;2022-11-15T05:12:56;100509.84;;;13.22
75431;BMP280;64127;51.488;5.462;2022-11-15T05:15:28;100512.59;;;13.25
75431;BMP280;64127;51.488;5.462;2022-11-15T05:18:00;100491.28;;;13.14
75431;BMP280;64127;51.488;5.462;2022-11-15T05:20:32;100516.22;;;13.30
75431;BMP280;64127;51.488;5.462;2022-11-15T05:23:04;100516.22;;;13.30
75431;BMP280;64127;51.488;5.462;2022-11-15T05:25:36;100513.56;;;13.30
75431;BMP280;64127;51.488;5.462;2022-11-15T05:28:09;100511.78;;;13.28
75431;BMP280;64127;51.488;5.462;2022-11-15T05:30:41;100502.16;;;13.30
75431;BMP280;64127;51.488;5.462;2022-11-15T05:33:13;100496.06;;;13.31
75431;BMP280;64127;51.488;5.462;2022-11-15T05:35:54;100499.50;;;13.28
75431;BMP280;64127;51.488;5.462;2022-11-15T05:38:28;100498.69;;;13.32
75431;BMP280;64127;51.488;5.462;2022-11-15T05:41:02;100498.63;;;13.29
75431;BMP280;64127;51.488;5.462;2022-11-15T05:43:37;100496.06;;;13.31
75431;BMP280;64127;51.488;5.462;2022-11-15T05:46:12;100504.06;;;13.35
75431;BMP280;64127;51.488;5.462;2022-11-15T05:48:49;100497.00;;;13.34
75431;BMP280;64127;51.488;5.462;2022-11-15T05:51:23;100503.19;;;13.36
75431;BMP280;64127;51.488;5.462;2022-11-15T05:53:58;100497.72;;;13.27
75431;BMP280;64127;51.488;5.462;2022-11-15T05:56:30;100511.97;;;13.35
75431;BMP280;64127;51.488;5.462;2022-11-15T05:59:02;100506.72;;;13.37
75431;BMP280;64127;51.488;5.462;2022-11-15T06:01:35;100517.31;;;13.38
75431;BMP280;64127;51.488;5.462;2022-11-15T06:04:07;100513.66;;;13.33
75431;BMP280;64127;51.488;5.462;2022-11-15T06:06:39;100519.88;;;13.37
75431;BMP280;64127;51.488;5.462;2022-11-15T06:09:11;100525.19;;;13.38
75431;BMP280;64127;51.488;5.462;2022-11-15T06:11:43;100521.69;;;13.39
75431;BMP280;64127;51.488;5.462;2022-11-15T06:14:15;100528.66;;;13.37
75431;BMP280;64127;51.488;5.462;2022-11-15T06:16:47;100499.31;;;13.20
75431;BMP280;64127;51.488;5.462;2022-11-15T06:19:19;100513.50;;;13.27
75431;BMP280;64127;51.488;5.462;2022-11-15T06:21:50;100523.41;;;13.37
75431;BMP280;64127;51.488;5.462;2022-11-15T06:24:22;100526.94;;;13.38
75431;BMP280;64127;51.488;5.462;2022-11-15T06:26:54;100524.25;;;13.36
75431;BMP280;64127;51.488;5.462;2022-11-15T06:29:26;100526.88;;;13.36
75431;BMP280;64127;51.488;5.462;2022-11-15T06:31:58;100533.94;;;13.37
75431;BMP280;64127;51.488;5.462;2022-11-15T06:34:30;100531.88;;;13.61
75431;BMP280;64127;51.488;5.462;2022-11-15T06:37:02;100528.81;;;13.43
75431;BMP280;64127;51.488;5.462;2022-11-15T06:39:34;100538.34;;;13.38
75431;BMP280;64127;51.488;5.462;2022-11-15T06:42:08;100512.63;;;13.27
75431;BMP280;64127;51.488;5.462;2022-11-15T06:44:40;100522.34;;;13.66
75431;BMP280;64127;51.488;5.462;2022-11-15T06:47:12;100531.38;;;13.40
75431;BMP280;64127;51.488;5.462;2022-11-15T06:49:44;100548.13;;;13.42
75431;BMP280;64127;51.488;5.462;2022-11-15T06:52:16;100544.59;;;13.42
75431;BMP280;64127;51.488;5.462;2022-11-15T06:54:50;100548.00;;;13.39
75431;BMP280;64127;51.488;5.462;2022-11-15T06:57:22;100553.38;;;13.42
75431;BMP280;64127;51.488;5.462;2022-11-15T06:59:53;100541.00;;;13.38
75431;BMP280;64127;51.488;5.462;2022-11-15T07:02:25;100554.25;;;13.43
75431;BMP280;64127;51.488;5.462;2022-11-15T07:04:57;100555.13;;;13.43
75431;BMP280;64127;51.488;5.462;2022-11-15T07:07:29;100556.78;;;13.38
75431;BMP280;64127;51.488;5.462;2022-11-15T07:10:01;100563.72;;;13.36
75431;BMP280;64127;51.488;5.462;2022-11-15T07:12:34;100559.28;;;13.34
75431;BMP280;64127;51.488;5.462;2022-11-15T07:15:06;100560.25;;;13.37
75431;BMP280;64127;51.488;5.462;2022-11-15T07:17:38;100564.69;;;13.38
75431;BMP280;64127;51.488;5.462;2022-11-15T07:20:12;100556.72;;;13.37
75431;BMP280;64127;51.488;5.462;2022-11-15T07:22:44;100576.13;;;13.40
75431;BMP280;64127;51.488;5.462;2022-11-15T07:25:17;100574.34;;;13.39
75431;BMP280;64127;51.488;5.462;2022-11-15T07:27:55;100570.72;;;13.36
75431;BMP280;64127;51.488;5.462;2022-11-15T07:30:28;100577.66;;;13.32
75431;BMP280;64127;51.488;5.462;2022-11-15T07:33:01;100577.78;;;13.35
75431;BMP280;64127;51.488;5.462;2022-11-15T07:35:33;100572.50;;;13.35
75431;BMP280;64127;51.488;5.462;2022-11-15T07:38:05;100575.97;;;13.34
75431;BMP280;64127;51.488;5.462;2022-11-15T07:40:37;100569.88;;;13.35
75431;BMP280;64127;51.488;5.462;2022-11-15T07:43:09;100557.44;;;13.30
75431;BMP280;64127;51.488;5.462;2022-11-15T07:45:45;100560.19;;;13.34
75431;BMP280;64127;51.488;5.462;2022-11-15T07:48:17;100547.78;;;13.30
75431;BMP280;64127;51.488;5.462;2022-11-15T07:50:49;100560.19;;;13.34
75431;BMP280;64127;51.488;5.462;2022-11-15T07:53:21;100555.75;;;13.33
75431;BMP280;64127;51.488;5.462;2022-11-15T07:55:53;100557.63;;;13.37
75431;BMP280;64127;51.488;5.462;2022-11-15T07:58:26;100561.16;;;13.38
75431;BMP280;64127;51.488;5.462;2022-11-15T08:00:58;100558.47;;;13.36
75431;BMP280;64127;51.488;5.462;2022-11-15T08:03:34;100566.44;;;13.39
75431;BMP280;64127;51.488;5.462;2022-11-15T08:06:06;100569.00;;;13.36
75431;BMP280;64127;51.488;5.462;2022-11-15T08:08:38;100567.34;;;13.40
75431;BMP280;64127;51.488;5.462;2022-11-15T08:11:10;100573.50;;;13.40
75431;BMP280;64127;51.488;5.462;2022-11-15T08:13:42;100581.44;;;13.42
75431;BMP280;64127;51.488;5.462;2022-11-15T08:16:14;100584.97;;;13.42
75431;BMP280;64127;51.488;5.462;2022-11-15T08:18:46;100581.31;;;13.37
75431;BMP280;64127;51.488;5.462;2022-11-15T08:21:20;100578.56;;;13.33
75431;BMP280;64127;51.488;5.462;2022-11-15T08:23:52;100580.34;;;13.34
75431;BMP280;64127;51.488;5.462;2022-11-15T08:26:25;100576.94;;;13.38
75431;BMP280;64127;51.488;5.462;2022-11-15T08:29:00;100568.16;;;13.37
75431;BMP280;64127;51.488;5.462;2022-11-15T08:31:32;100561.09;;;13.35
75431;BMP280;64127;51.488;5.462;2022-11-15T08:34:05;100569.06;;;13.39
75431;BMP280;64127;51.488;5.462;2022-11-15T08:36:37;100561.28;;;13.44
75431;BMP280;64127;51.488;5.462;2022-11-15T08:39:16;100555.28;;;13.49
75431;BMP280;64127;51.488;5.462;2022-11-15T08:41:48;100553.66;;;13.54
75431;BMP280;64127;51.488;5.462;2022-11-15T08:44:20;100550.25;;;13.58
75431;BMP280;64127;51.488;5.462;2022-11-15T08:46:52;100555.78;;;13.69
75431;BMP280;64127;51.488;5.462;2022-11-15T08:49:24;100547.97;;;13.73
75431;BMP280;64127;51.488;5.462;2022-11-15T08:51:56;100546.53;;;13.86
75431;BMP280;64127;51.488;5.462;2022-11-15T08:54:28;100537.84;;;13.92
75431;BMP280;64127;51.488;5.462;2022-11-15T08:57:00;100529.06;;;13.91
75431;BMP280;64127;51.488;5.462;2022-11-15T08:59:32;100531.88;;;13.99
75431;BMP280;64127;51.488;5.462;2022-11-15T09:02:04;100539.06;;;14.06
75431;BMP280;64127;51.488;5.462;2022-11-15T09:04:37;100535.50;;;14.04
75431;BMP280;64127;51.488;5.462;2022-11-15T09:07:13;100531.03;;;14.01
75431;BMP280;64127;51.488;5.462;2022-11-15T09:09:45;100528.38;;;14.00
75431;BMP280;64127;51.488;5.462;2022-11-15T09:12:17;100522.16;;;13.98
75431;BMP280;64127;51.488;5.462;2022-11-15T09:14:49;100514.25;;;13.96
75431;BMP280;64127;51.488;5.462;2022-11-15T09:17:21;100509.94;;;14.00
75431;BMP280;64127;51.488;5.462;2022-11-15T09:19:55;100523.19;;;14.03
75431;BMP280;64127;51.488;5.462;2022-11-15T09:22:27;100511.97;;;14.13
75431;BMP280;64127;51.488;5.462;2022-11-15T09:25:00;100500.81;;;14.25
75431;BMP280;64127;51.488;5.462;2022-11-15T09:27:32;100496.56;;;14.33
75431;BMP280;64127;51.488;5.462;2022-11-15T09:30:05;100502.91;;;14.41
75431;BMP280;64127;51.488;5.462;2022-11-15T09:32:37;100507.53;;;14.52
75431;BMP280;64127;51.488;5.462;2022-11-15T09:35:10;100498.84;;;14.58
75431;BMP280;64127;51.488;5.462;2022-11-15T09:37:42;100496.19;;;14.56
75431;BMP280;64127;51.488;5.462;2022-11-15T09:40:16;100500.00;;;14.73
75431;BMP280;64127;51.488;5.462;2022-11-15T09:45:56;100483.50;;;14.84
75431;BMP280;64127;51.488;5.462;2022-11-15T09:48:56;100493.28;;;14.91
75431;BMP280;64127;51.488;5.462;2022-11-15T09:51:43;100496.06;;;14.98
75431;BMP280;64127;51.488;5.462;2022-11-15T09:54:34;100483.88;;;15.05
75431;BMP280;64127;51.488;5.462;2022-11-15T10:00:43;100483.25;;;15.21
75431;BMP280;64127;51.488;5.462;2022-11-15T10:03:33;100472.69;;;15.21
75431;BMP280;64127;51.488;5.462;2022-11-15T10:06:10;100480.91;;;15.39
75431;BMP280;64127;51.488;5.462;2022-11-15T10:09:02;100480.25;;;15.51
75431;BMP280;64127;51.488;5.462;2022-11-15T10:11:37;100470.53;;;15.50
75431;BMP280;64127;51.488;5.462;2022-11-15T10:14:17;100478.63;;;15.60
75431;BMP280;64127;51.488;5.462;2022-11-15T10:19:56;100467.19;;;15.61
75431;BMP280;64127;51.488;5.462;2022-11-15T10:22:47;100461.22;;;15.75
75431;BMP280;64127;51.488;5.462;2022-11-15T10:25:24;100459.53;;;15.81
75431;BMP280;64127;51.488;5.462;2022-11-15T10:28:22;100456.75;;;15.70
75431;BMP280;64127;51.488;5.462;2022-11-15T10:30:58;100467.03;;;15.51
75431;BMP280;64127;51.488;5.462;2022-11-15T10:33:38;100455.22;;;15.29
75431;BMP280;64127;51.488;5.462;2022-11-15T10:36:20;100461.13;;;15.13
75431;BMP280;64127;51.488;5.462;2022-11-15T10:38:55;100458.31;;;15.04
75431;BMP280;64127;51.488;5.462;2022-11-15T10:46:41;100438.81;;;14.93
75431;BMP280;64127;51.488;5.462;2022-11-15T10:49:22;100420.50;;;15.03
75431;BMP280;64127;51.488;5.462;2022-11-15T10:54:40;100420.13;;;15.36
75431;BMP280;64127;51.488;5.462;2022-11-15T10:57:28;100417.81;;;15.57
75431;BMP280;64127;51.488;5.462;2022-11-15T11:03:01;100405.06;;;15.94
75431;BMP280;64127;51.488;5.462;2022-11-15T11:05:37;100409.78;;;16.19
75431;BMP280;64127;51.488;5.462;2022-11-15T11:10:57;100400.31;;;16.42
75431;BMP280;64127;51.488;5.462;2022-11-15T11:13:39;100388.94;;;16.52
75431;BMP280;64127;51.488;5.462;2022-11-15T11:22:30;100376.16;;;17.01
75431;BMP280;64127;51.488;5.462;2022-11-15T11:25:29;100369.84;;;16.87
75431;BMP280;64127;51.488;5.462;2022-11-15T11:39:25;100339.53;;;16.50
75431;BMP280;64127;51.488;5.462;2022-11-15T11:42:35;100322.75;;;16.46
75431;BMP280;64127;51.488;5.462;2022-11-15T11:46:13;100330.66;;;16.45
75431;BMP280;64127;51.488;5.462;2022-11-15T11:48:51;100324.38;;;16.32
75431;BMP280;64127;51.488;5.462;2022-11-15T11:51:51;100308.50;;;16.34
75431;BMP280;64127;51.488;5.462;2022-11-15T11:54:52;100287.22;;;16.20
75431;BMP280;64127;51.488;5.462;2022-11-15T11:57:49;100295.34;;;16.41
75431;BMP280;64127;51.488;5.462;2022-11-15T12:00:25;100300.72;;;16.52
75431;BMP280;64127;51.488;5.462;2022-11-15T12:03:43;100291.00;;;16.46
75431;BMP280;64127;51.488;5.462;2022-11-15T12:06:36;100283.91;;;16.45
75431;BMP280;64127;51.488;5.462;2022-11-15T12:15:26;100275.16;;;16.52
75431;BMP280;64127;51.488;5.462;2022-11-15T12:18:01;100265.59;;;16.68
75431;BMP280;64127;51.488;5.462;2022-11-15T12:20:39;100248.78;;;16.64
75431;BMP280;64127;51.488;5.462;2022-11-15T12:23:23;100259.44;;;16.67
75431;BMP280;64127;51.488;5.462;2022-11-15T12:26:21;100243.47;;;16.55
75431;BMP280;64127;51.488;5.462;2022-11-15T12:29:01;100241.72;;;16.57
75431;BMP280;64127;51.488;5.462;2022-11-15T12:31:49;100230.16;;;16.52
75431;BMP280;64127;51.488;5.462;2022-11-15T12:36:54;100232.06;;;16.68
75431;BMP280;64127;51.488;5.462;2022-11-15T12:40:19;100222.34;;;16.64
75431;BMP280;64127;51.488;5.462;2022-11-15T12:45:46;100218.81;;;16.65
75431;BMP280;64127;51.488;5.462;2022-11-15T12:53:32;100207.19;;;16.45
75431;BMP280;64127;51.488;5.462;2022-11-15T12:59:00;100173.50;;;16.20
75431;BMP280;64127;51.488;5.462;2022-11-15T13:07:03;100178.91;;;16.32
75431;BMP280;64127;51.488;5.462;2022-11-15T13:17:55;100158.38;;;16.01
75431;BMP280;64127;51.488;5.462;2022-11-15T13:20:32;100152.22;;;15.99
75431;BMP280;64127;51.488;5.462;2022-11-15T13:23:15;100143.38;;;15.95
75431;BMP280;64127;51.488;5.462;2022-11-15T13:26:10;100145.97;;;15.88
75431;BMP280;64127;51.488;5.462;2022-11-15T13:28:49;100116.78;;;15.77
75431;BMP280;64127;51.488;5.462;2022-11-15T13:31:34;100144.22;;;15.93
75431;BMP280;64127;51.488;5.462;2022-11-15T13:34:30;100137.09;;;15.83
75431;BMP280;64127;51.488;5.462;2022-11-15T13:39:54;100128.31;;;15.84
75431;BMP280;64127;51.488;5.462;2022-11-15T13:42:28;100117.72;;;15.84
75431;BMP280;64127;51.488;5.462;2022-11-15T13:45:04;100108.88;;;15.80
75431;BMP280;64127;51.488;5.462;2022-11-15T13:47:36;100111.53;;;15.79
75431;BMP280;64127;51.488;5.462;2022-11-15T13:50:13;100112.38;;;15.76
75431;BMP280;64127;51.488;5.462;2022-11-15T13:52:46;100101.78;;;15.71
75431;BMP280;64127;51.488;5.462;2022-11-15T13:55:23;100096.44;;;15.68
75431;BMP280;64127;51.488;5.462;2022-11-15T13:58:03;100092.91;;;15.63
75431;BMP280;64127;51.488;5.462;2022-11-15T14:00:43;100084.09;;;15.61
75431;BMP280;64127;51.488;5.462;2022-11-15T14:03:21;100084.94;;;15.59
75431;BMP280;64127;51.488;5.462;2022-11-15T14:09:04;100068.16;;;15.52
75431;BMP280;64127;51.488;5.462;2022-11-15T14:11:33;100067.25;;;15.52
75431;BMP280;64127;51.488;5.462;2022-11-15T14:14:14;100071.69;;;15.51
75431;BMP280;64127;51.488;5.462;2022-11-15T14:16:53;100059.28;;;15.47
75431;BMP280;64127;51.488;5.462;2022-11-15T14:30:46;100032.81;;;15.41
75431;BMP280;64127;51.488;5.462;2022-11-15T14:33:33;100031.97;;;15.44
75431;BMP280;64127;51.488;5.462;2022-11-15T14:36:26;100036.38;;;15.43
75431;BMP280;64127;51.488;5.462;2022-11-15T14:38:58;100019.59;;;15.40
75431;BMP280;64127;51.488;5.462;2022-11-15T14:41:35;100024.03;;;15.45
75431;BMP280;64127;51.488;5.462;2022-11-15T14:44:11;100020.53;;;15.46
75431;BMP280;64127;51.488;5.462;2022-11-15T14:46:44;100022.31;;;15.47
75431;BMP280;64127;51.488;5.462;2022-11-15T14:49:16;100017.03;;;15.47
75431;BMP280;64127;51.488;5.462;2022-11-15T14:51:48;100010.88;;;15.47
75431;BMP280;64127;51.488;5.462;2022-11-15T14:54:19;100000.28;;;15.47
75431;BMP280;64127;51.488;5.462;2022-11-15T14:56:51;100006.47;;;15.47
75431;BMP280;64127;51.488;5.462;2022-11-15T14:59:23;99983.53;;;15.40
75431;BMP280;64127;51.488;5.462;2022-11-15T15:01:55;99991.47;;;15.45
75431;BMP280;64127;51.488;5.462;2022-11-15T15:04:27;99985.31;;;15.44
75431;BMP280;64127;51.488;5.462;2022-11-15T15:06:59;99985.31;;;15.44
75431;BMP280;64127;51.488;5.462;2022-11-15T15:09:32;99984.44;;;15.44
75431;BMP280;64127;51.488;5.462;2022-11-15T15:12:21;99974.72;;;15.41
75431;BMP280;64127;51.488;5.462;2022-11-15T15:14:53;99964.13;;;15.38
75431;BMP280;64127;51.488;5.462;2022-11-15T15:17:25;99965.91;;;15.39
75431;BMP280;64127;51.488;5.462;2022-11-15T15:19:57;99965.91;;;15.42
75431;BMP280;64127;51.488;5.462;2022-11-15T15:22:30;99961.50;;;15.40
75431;BMP280;64127;51.488;5.462;2022-11-15T15:25:02;99959.72;;;15.39
75431;BMP280;64127;51.488;5.462;2022-11-15T15:27:35;99955.34;;;15.39
75431;BMP280;64127;51.488;5.462;2022-11-15T15:30:08;99948.28;;;15.38
75431;BMP280;64127;51.488;5.462;2022-11-15T15:32:40;99943.88;;;15.36
75431;BMP280;64127;51.488;5.462;2022-11-15T15:35:14;99942.97;;;15.35
75431;BMP280;64127;51.488;5.462;2022-11-15T15:37:48;99943.00;;;15.38
75431;BMP280;64127;51.488;5.462;2022-11-15T15:40:23;99949.16;;;15.39
75431;BMP280;64127;51.488;5.462;2022-11-15T15:42:56;99915.63;;;15.22
75431;BMP280;64127;51.488;5.462;2022-11-15T15:45:28;99939.69;;;15.63
75431;BMP280;64127;51.488;5.462;2022-11-15T15:48:01;99944.81;;;15.45
75431;BMP280;64127;51.488;5.462;2022-11-15T15:50:34;99923.63;;;15.33
75431;BMP280;64127;51.488;5.462;2022-11-15T15:53:07;99930.63;;;15.31
75431;BMP280;64127;51.488;5.462;2022-11-15T15:55:39;99934.19;;;15.36
75431;BMP280;64127;51.488;5.462;2022-11-15T15:58:11;99935.06;;;15.38
75431;BMP280;64127;51.488;5.462;2022-11-15T16:00:43;99940.34;;;15.38
75431;BMP280;64127;51.488;5.462;2022-11-15T16:03:15;99935.94;;;15.36
75431;BMP280;64127;51.488;5.462;2022-11-15T16:05:50;99934.19;;;15.36
75431;BMP280;64127;51.488;5.462;2022-11-15T16:08:24;99932.41;;;15.35
75431;BMP280;64127;51.488;5.462;2022-11-15T16:10:58;99930.66;;;15.33
75431;BMP280;64127;51.488;5.462;2022-11-15T16:13:30;99923.59;;;15.27
75431;BMP280;64127;51.488;5.462;2022-11-15T16:16:02;99925.34;;;15.31
75431;BMP280;64127;51.488;5.462;2022-11-15T16:18:34;99918.25;;;15.24
75431;BMP280;64127;51.488;5.462;2022-11-15T16:21:07;99924.44;;;15.26
75431;BMP280;64127;51.488;5.462;2022-11-15T16:23:40;99929.72;;;15.26
75431;BMP280;64127;51.488;5.462;2022-11-15T16:26:26;99935.88;;;15.25
75431;BMP280;64127;51.488;5.462;2022-11-15T16:28:59;99935.84;;;15.22
75431;BMP280;64127;51.488;5.462;2022-11-15T16:31:31;99924.34;;;15.11
75431;BMP280;64127;51.488;5.462;2022-11-15T16:34:03;99939.34;;;15.18
75431;BMP280;64127;51.488;5.462;2022-11-15T16:36:35;99939.31;;;15.15
75431;BMP280;64127;51.488;5.462;2022-11-15T16:39:11;99933.13;;;15.11
75431;BMP280;64127;51.488;5.462;2022-11-15T16:41:45;99936.66;;;15.09
75431;BMP280;64127;51.488;5.462;2022-11-15T16:44:18;99936.66;;;15.09
75431;BMP280;64127;51.488;5.462;2022-11-15T16:46:51;99923.41;;;15.03
75431;BMP280;64127;51.488;5.462;2022-11-15T16:49:23;99937.50;;;15.05
75431;BMP280;64127;51.488;5.462;2022-11-15T16:51:55;99922.47;;;14.98
75431;BMP280;64127;51.488;5.462;2022-11-15T16:54:27;99926.88;;;14.97
75431;BMP280;64127;51.488;5.462;2022-11-15T16:56:59;99930.38;;;14.95